Atwater, CA (95301)

10:00 AM PDT on September 17, 2014 (GMT -0700)
Castle | Change Station
CLOSE
Current Station
Airport
Location: Atwater,
Elevation: 187 ft
Nearby Weather Stations

Elev 187 ft 37.38 °N, 120.57 °W | Updated 15 minutes ago

Clear
Clear
79 °F
Feels Like 79 °F
N
5
Wind Variable Wind from Variable

Today
High -- | Low -- °F
--% Chance of Precip.
Yesterday
High -- | Low -- °F
Precip. -- in
6:46 AM 7:06 PM
Waning Crescent, 34% visible
Pressure 29.79 in
Visibility 10.0 miles
Clouds Clear
Dew Point 48 °F
Humidity 34%
Rainfall 0.00 in
Snow Depth 1 in , 0 in , 0 in
UV 4 out of 12
Pollen 6.90 out of 12
Air Quality Not available.
Flu Activity Not available.
METAR KMER 171645Z VRB04KT 10SM SKC 26/09 A2979

More Conditions Fewer Conditions

Pressure 29.79 in
Visibility 10.0 miles
Clouds Clear
Dew Point 48 °F
Humidity 34%
Rainfall 0.00 in
Snow Depth 1 in , 0 in , 0 in
UV 4 out of 12
Pollen 6.90 out of 12
Air Quality Not available.
Flu Activity Not available.
METAR KMER 171645Z VRB04KT 10SM SKC 26/09 A2979

More Conditions Fewer Conditions

10-Day Weather Forecast

Almanac

Astronomy

Sep. 17, 2014 Rise Set
Actual Time 6:46 AM PDT 7:06 PM PDT
Civil Twilight 6:20 AM PDT 7:33 PM PDT
Nautical Twilight 5:49 AM PDT 8:03 PM PDT
Astronomical Twilight 5:18 AM PDT 8:34 PM PDT
Moon 12:56 AM PDT 3:15 PM PDT
Length of Visible Light 13h 12m
Length of Day
12h 20m
Tomorrow will be 2m 22s shorter.
Waning Crescent, 34% of the Moon is Illuminated
Today
Waning Crescent
Sep 24
New
Oct 1
First Quarter
Oct 8
Full
Oct 15
Last Quarter

Today's Extremes

State Highs State Lows

Community

WunderPhotos

Upload Photos

1,754,106 photos uploaded!

Nearby

Air Quality

  Air Quality AQ Index Pollutant
Yesterday Good
OZONE
Wednesday Good
OZONE
Thursday Good
OZONE
Friday Good
OZONE
Saturday Good
OZONE
Sunday Good
OZONE

Snow Depth

Station Depth Elevation
Burnside Lake 1 in 8139 ft
Summit Meadow 0 in 9122 ft
Monitor Pass 0 in 8350 ft
Hagan's Meadow 0 in 8000 ft
Forestdale Creek 0 in 8029 ft

Earthquake Activity

City Distance Mag. Time & Date
No recent earthquake activity has been reported nearby.
Minimum magnitude displayed is 2.5.

Coastal Water Temperatures

Place Temperature
No Stations Reporting

Nearby Weather Stations